Time;durP1;ratioP1;P1;durP2;ratioP2;P2;SDS_P1;SDS_P2;PMS_P1;PMS_P2;Temp;Humidity;BMP_temperature;BMP_pressure;BME280_temperature;BME280_humidity;BME280_pressure;Samples;Min_cycle;Max_cycle;Signal;HPM_P1;HPM_P2
2022/10/27 00:01:03;;;;;;;10.07;2.78;;;;;;;;;;5086221;28;20031;-56
2022/10/27 00:03:28;;;;;;;7.70;2.85;;;;;;;;;;5083418;28;20488;-55
2022/10/27 00:05:53;;;;;;;4.63;2.55;;;;;;;;;;5089975;28;20047;-56
2022/10/27 00:08:19;;;;;;;8.90;2.50;;;;;;;;;;5087189;28;20073;-55
2022/10/27 00:10:44;;;;;;;12.23;2.25;;;;;;;;;;5078536;28;20017;-55
2022/10/27 00:13:10;;;;;;;6.50;2.70;;;;;;;;;;5087989;28;20024;-55
2022/10/27 00:15:36;;;;;;;6.20;2.60;;;;;;;;;;5090632;28;20364;-55
2022/10/27 00:18:05;;;;;;;6.95;2.40;;;;;;;;;;5089996;28;20032;-56
2022/10/27 00:20:30;;;;;;;8.85;3.60;;;;;;;;;;5084805;28;20032;-55
2022/10/27 00:22:56;;;;;;;7.10;3.13;;;;;;;;;;5097571;28;20454;-56
2022/10/27 00:25:21;;;;;;;7.45;3.20;;;;;;;;;;5082419;28;20393;-56
2022/10/27 00:27:46;;;;;;;11.13;3.40;;;;;;;;;;5093001;28;20446;-55
2022/10/27 00:30:12;;;;;;;10.23;3.28;;;;;;;;;;5092353;28;20122;-56
2022/10/27 00:32:37;;;;;;;5.95;2.95;;;;;;;;;;5094855;28;20439;-55
2022/10/27 00:35:02;;;;;;;10.38;3.00;;;;;;;;;;5092615;28;20630;-56
2022/10/27 00:37:28;;;;;;;8.48;3.20;;;;;;;;;;5087713;28;20390;-56
2022/10/27 00:39:53;;;;;;;9.55;3.17;;;;;;;;;;5091426;28;20019;-57
2022/10/27 00:42:18;;;;;;;11.38;3.60;;;;;;;;;;5094989;28;20330;-56
2022/10/27 00:44:46;;;;;;;10.45;3.30;;;;;;;;;;5086194;28;20032;-54
2022/10/27 00:47:16;;;;;;;9.35;3.53;;;;;;;;;;5092333;28;20032;-56
2022/10/27 00:50:02;;;;;;;8.63;3.08;;;;;;;;;;5091754;28;20043;-56
2022/10/27 00:52:27;;;;;;;9.38;3.40;;;;;;;;;;5067743;28;20064;-55
2022/10/27 00:54:53;;;;;;;16.27;3.85;;;;;;;;;;5097738;28;20478;-56
2022/10/27 00:57:18;;;;;;;11.00;3.75;;;;;;;;;;5086927;28;20479;-55
2022/10/27 00:59:43;;;;;;;8.38;4.03;;;;;;;;;;5099606;28;20019;-55
2022/10/27 01:02:09;;;;;;;9.77;4.22;;;;;;;;;;5091061;28;20363;-56
2022/10/27 01:04:41;;;;;;;10.57;4.63;;;;;;;;;;5085682;28;20650;-56
2022/10/27 01:07:06;;;;;;;9.43;4.45;;;;;;;;;;5086130;28;20040;-56
2022/10/27 01:09:31;;;;;;;9.20;4.70;;;;;;;;;;5090824;28;20511;-56
2022/10/27 01:11:56;;;;;;;12.65;4.45;;;;;;;;;;5095233;28;20521;-57
2022/10/27 01:14:22;;;;;;;19.88;5.63;;;;;;;;;;5090546;28;20088;-55
2022/10/27 01:16:52;;;;;;;10.75;4.50;;;;;;;;;;5087271;28;20012;-56
2022/10/27 01:19:36;;;;;;;17.15;5.82;;;;;;;;;;5097588;28;20085;-56
2022/10/27 01:22:19;;;;;;;14.43;6.40;;;;;;;;;;5087999;28;20466;-55
2022/10/27 01:25:10;;;;;;;15.23;6.18;;;;;;;;;;5067844;28;20417;-55
2022/10/27 01:27:38;;;;;;;13.80;7.20;;;;;;;;;;5084510;28;20163;-55
2022/10/27 01:30:05;;;;;;;15.65;7.60;;;;;;;;;;5090386;28;20016;-55
2022/10/27 01:32:49;;;;;;;18.58;7.60;;;;;;;;;;5075414;28;20034;-55
2022/10/27 01:35:17;;;;;;;19.23;8.70;;;;;;;;;;5084486;28;20104;-55
2022/10/27 01:37:43;;;;;;;18.35;7.43;;;;;;;;;;5088084;28;20020;-56
2022/10/27 01:40:09;;;;;;;17.77;8.48;;;;;;;;;;5079578;28;20055;-54
2022/10/27 01:42:37;;;;;;;20.05;8.18;;;;;;;;;;5088085;28;20438;-57
2022/10/27 01:45:03;;;;;;;16.13;7.30;;;;;;;;;;5089061;28;20360;-56
2022/10/27 01:47:28;;;;;;;16.73;7.22;;;;;;;;;;5086798;28;20051;-56
2022/10/27 01:49:53;;;;;;;15.35;7.30;;;;;;;;;;5087548;28;20384;-56
2022/10/27 01:52:37;;;;;;;14.75;7.13;;;;;;;;;;5091188;28;20028;-56
2022/10/27 01:55:02;;;;;;;13.50;6.10;;;;;;;;;;5090408;28;20030;-55
2022/10/27 01:57:34;;;;;;;20.75;6.03;;;;;;;;;;5090092;28;20024;-55
2022/10/27 01:59:59;;;;;;;13.70;5.72;;;;;;;;;;5093285;28;20027;-56
2022/10/27 02:02:36;;;;;;;15.50;5.53;;;;;;;;;;5090427;28;20031;-55
2022/10/27 02:05:06;;;;;;;16.55;5.85;;;;;;;;;;5073196;28;20045;-55
2022/10/27 02:07:39;;;;;;;11.38;6.25;;;;;;;;;;5088152;28;20028;-55
2022/10/27 02:10:11;;;;;;;17.70;7.25;;;;;;;;;;5088762;28;20035;-56
2022/10/27 02:12:36;;;;;;;20.02;5.97;;;;;;;;;;5094281;28;20146;-55
2022/10/27 02:15:07;;;;;;;12.48;6.07;;;;;;;;;;5095977;28;20539;-55
2022/10/27 02:17:34;;;;;;;15.50;6.72;;;;;;;;;;5088025;28;20054;-57
2022/10/27 02:19:59;;;;;;;19.98;7.45;;;;;;;;;;5094017;28;20024;-56
2022/10/27 02:22:25;;;;;;;12.95;6.65;;;;;;;;;;5081379;28;20084;-56
2022/10/27 02:24:50;;;;;;;17.02;6.43;;;;;;;;;;5092262;28;20041;-55
2022/10/27 02:27:17;;;;;;;15.60;6.70;;;;;;;;;;5090501;28;20028;-54
2022/10/27 02:29:46;;;;;;;15.30;6.22;;;;;;;;;;5087709;28;20514;-56
2022/10/27 02:32:15;;;;;;;18.17;6.53;;;;;;;;;;5084927;28;20112;-56
2022/10/27 02:34:40;;;;;;;14.85;6.75;;;;;;;;;;5076973;28;20031;-54
2022/10/27 02:37:05;;;;;;;15.90;7.05;;;;;;;;;;5073572;28;20028;-55
2022/10/27 02:39:30;;;;;;;10.95;6.18;;;;;;;;;;5090978;28;20028;-55
2022/10/27 02:41:56;;;;;;;17.25;7.13;;;;;;;;;;5085231;28;20021;-54
2022/10/27 02:44:21;;;;;;;14.65;6.35;;;;;;;;;;5087449;28;20177;-55
2022/10/27 02:46:46;;;;;;;15.50;5.57;;;;;;;;;;5087694;28;20032;-55
2022/10/27 02:49:12;;;;;;;9.73;5.40;;;;;;;;;;5086807;28;20038;-55
2022/10/27 02:51:37;;;;;;;11.38;4.32;;;;;;;;;;5076110;28;20046;-56
2022/10/27 02:54:02;;;;;;;19.05;4.65;;;;;;;;;;5089095;28;20059;-55
2022/10/27 02:56:29;;;;;;;11.93;4.43;;;;;;;;;;5086950;28;20024;-56
2022/10/27 02:58:55;;;;;;;16.50;4.57;;;;;;;;;;5082846;28;20031;-56
2022/10/27 03:01:20;;;;;;;13.75;5.60;;;;;;;;;;5091115;28;20418;-56
2022/10/27 03:03:45;;;;;;;13.75;5.53;;;;;;;;;;5108127;27;20024;-56
2022/10/27 03:06:10;;;;;;;14.55;5.57;;;;;;;;;;5090278;28;20138;-57
2022/10/27 03:08:36;;;;;;;10.90;5.47;;;;;;;;;;5081179;28;20111;-55
2022/10/27 03:11:01;;;;;;;10.82;5.22;;;;;;;;;;5084080;28;20024;-56
2022/10/27 03:13:26;;;;;;;16.98;5.32;;;;;;;;;;5086558;28;20139;-56
2022/10/27 03:15:51;;;;;;;11.93;5.22;;;;;;;;;;5093891;28;20543;-55
2022/10/27 03:18:17;;;;;;;14.23;6.00;;;;;;;;;;5090740;28;20024;-56
2022/10/27 03:20:44;;;;;;;13.23;6.10;;;;;;;;;;5091375;28;20019;-56
2022/10/27 03:23:09;;;;;;;13.85;6.60;;;;;;;;;;5094328;28;20024;-56
2022/10/27 03:25:36;;;;;;;12.43;7.15;;;;;;;;;;5083801;28;20540;-55
2022/10/27 03:28:01;;;;;;;10.90;5.85;;;;;;;;;;5089348;28;20018;-56
2022/10/27 03:30:26;;;;;;;14.63;6.30;;;;;;;;;;5090051;28;20024;-56
2022/10/27 03:32:51;;;;;;;10.93;5.45;;;;;;;;;;5083516;28;20085;-56
2022/10/27 03:35:17;;;;;;;10.02;5.30;;;;;;;;;;5098522;28;20016;-56
2022/10/27 03:37:42;;;;;;;9.63;4.93;;;;;;;;;;5091760;28;20051;-55
2022/10/27 03:40:08;;;;;;;11.65;4.63;;;;;;;;;;5093093;28;20231;-56
2022/10/27 03:42:33;;;;;;;8.63;4.90;;;;;;;;;;5089058;28;20025;-56
2022/10/27 03:44:58;;;;;;;15.57;5.22;;;;;;;;;;5093527;28;20576;-55
2022/10/27 03:47:23;;;;;;;13.27;4.43;;;;;;;;;;5086896;28;20036;-57
2022/10/27 03:49:49;;;;;;;13.50;4.88;;;;;;;;;;5089269;28;20087;-58
2022/10/27 03:52:14;;;;;;;13.05;4.75;;;;;;;;;;5088250;28;20394;-57
2022/10/27 03:54:39;;;;;;;13.73;4.78;;;;;;;;;;5087856;28;20090;-57
2022/10/27 03:57:04;;;;;;;16.95;5.78;;;;;;;;;;5091015;28;20030;-57
2022/10/27 03:59:29;;;;;;;10.82;5.43;;;;;;;;;;5084233;28;20466;-57
2022/10/27 04:01:55;;;;;;;10.70;5.68;;;;;;;;;;5096536;28;20568;-57
2022/10/27 04:04:20;;;;;;;14.00;6.68;;;;;;;;;;5085698;28;20021;-58
2022/10/27 04:06:45;;;;;;;15.20;6.65;;;;;;;;;;5087387;28;20048;-56
2022/10/27 04:09:10;;;;;;;17.42;6.30;;;;;;;;;;5085676;28;20027;-56
2022/10/27 04:11:35;;;;;;;18.38;8.50;;;;;;;;;;5089809;28;20020;-56
2022/10/27 04:14:01;;;;;;;17.20;8.55;;;;;;;;;;5090630;28;20022;-57
2022/10/27 04:16:26;;;;;;;22.60;8.05;;;;;;;;;;5093129;28;20059;-57
2022/10/27 04:18:51;;;;;;;10.63;7.18;;;;;;;;;;5082807;28;20024;-55
2022/10/27 04:21:17;;;;;;;11.90;7.43;;;;;;;;;;5094578;28;20052;-57
2022/10/27 04:23:42;;;;;;;17.45;6.60;;;;;;;;;;5092555;28;20672;-55
2022/10/27 04:26:07;;;;;;;12.88;5.88;;;;;;;;;;5092226;28;20121;-55
2022/10/27 04:28:32;;;;;;;8.65;4.90;;;;;;;;;;5090796;28;20021;-56
2022/10/27 04:30:58;;;;;;;11.45;4.93;;;;;;;;;;5095114;28;20091;-57
2022/10/27 04:33:23;;;;;;;13.25;5.22;;;;;;;;;;5090274;28;20031;-56
2022/10/27 04:35:48;;;;;;;12.07;5.10;;;;;;;;;;5095771;28;20028;-56
2022/10/27 04:38:13;;;;;;;21.50;6.22;;;;;;;;;;5086890;28;20554;-56
2022/10/27 04:40:39;;;;;;;15.10;7.20;;;;;;;;;;5099049;28;20513;-56
2022/10/27 04:43:05;;;;;;;16.90;7.88;;;;;;;;;;5091890;28;20008;-57
2022/10/27 04:45:31;;;;;;;14.18;8.15;;;;;;;;;;5082688;28;20079;-55
2022/10/27 04:47:56;;;;;;;16.42;8.55;;;;;;;;;;5083149;28;20047;-56
2022/10/27 04:50:21;;;;;;;24.27;8.30;;;;;;;;;;5098364;28;20036;-56
2022/10/27 04:52:56;;;;;;;25.10;7.85;;;;;;;;;;5090498;28;20021;-57
2022/10/27 04:55:21;;;;;;;134.90;10.50;;;;;;;;;;5086864;28;20076;-57
2022/10/27 04:57:46;;;;;;;19.95;7.53;;;;;;;;;;5086465;28;20031;-56
2022/10/27 05:00:12;;;;;;;18.08;7.30;;;;;;;;;;5087965;28;20072;-56
2022/10/27 05:02:37;;;;;;;78.45;8.90;;;;;;;;;;5093388;28;20044;-56
2022/10/27 05:05:02;;;;;;;21.08;7.22;;;;;;;;;;5085458;28;20032;-56
2022/10/27 05:07:27;;;;;;;19.30;7.00;;;;;;;;;;5093901;28;20032;-56
2022/10/27 05:09:53;;;;;;;33.15;8.40;;;;;;;;;;5089275;28;20008;-56
2022/10/27 05:12:18;;;;;;;81.78;9.02;;;;;;;;;;5090845;28;20389;-56
2022/10/27 05:14:43;;;;;;;214.07;11.95;;;;;;;;;;5086890;28;20163;-57
2022/10/27 05:17:09;;;;;;;293.08;15.15;;;;;;;;;;5091712;28;20020;-57
2022/10/27 05:19:34;;;;;;;269.20;14.68;;;;;;;;;;5086324;28;20023;-56
2022/10/27 05:21:59;;;;;;;97.55;11.30;;;;;;;;;;5078619;28;20028;-56
2022/10/27 05:24:24;;;;;;;192.98;12.50;;;;;;;;;;5093895;28;20443;-56
2022/10/27 05:26:50;;;;;;;118.45;12.15;;;;;;;;;;5095788;28;20110;-57
2022/10/27 05:29:15;;;;;;;48.20;9.55;;;;;;;;;;5092409;28;20503;-57
2022/10/27 05:31:40;;;;;;;45.55;8.90;;;;;;;;;;5088556;28;20024;-57
2022/10/27 05:34:06;;;;;;;34.72;9.07;;;;;;;;;;5088570;28;20066;-57
2022/10/27 05:36:31;;;;;;;48.55;9.50;;;;;;;;;;5091889;28;20086;-57
2022/10/27 05:38:56;;;;;;;60.90;7.93;;;;;;;;;;5090193;28;20028;-57
2022/10/27 05:41:21;;;;;;;54.90;7.75;;;;;;;;;;5089427;28;20042;-57
2022/10/27 05:43:47;;;;;;;34.15;8.25;;;;;;;;;;5090218;28;20459;-57
2022/10/27 05:46:12;;;;;;;114.72;9.27;;;;;;;;;;5091247;28;20448;-57
2022/10/27 05:48:37;;;;;;;33.00;7.85;;;;;;;;;;5095479;28;20036;-58
2022/10/27 05:51:02;;;;;;;14.35;7.40;;;;;;;;;;5089607;28;20080;-56
2022/10/27 05:53:27;;;;;;;10.98;6.93;;;;;;;;;;5096509;28;20077;-58
2022/10/27 05:55:53;;;;;;;13.43;6.28;;;;;;;;;;5085424;28;20466;-57
2022/10/27 05:58:18;;;;;;;16.30;7.80;;;;;;;;;;5089320;28;20424;-57
2022/10/27 06:00:43;;;;;;;23.90;8.38;;;;;;;;;;5093248;28;20023;-57
2022/10/27 06:03:12;;;;;;;15.23;7.95;;;;;;;;;;5088875;28;20454;-58
2022/10/27 06:05:38;;;;;;;16.98;8.40;;;;;;;;;;5080845;28;20130;-58
2022/10/27 06:08:03;;;;;;;14.98;8.35;;;;;;;;;;5079793;28;20131;-57
2022/10/27 06:10:28;;;;;;;11.20;7.07;;;;;;;;;;5087470;28;20154;-56
2022/10/27 06:13:00;;;;;;;9.73;6.90;;;;;;;;;;5079090;28;20032;-57
2022/10/27 06:15:25;;;;;;;19.48;9.38;;;;;;;;;;5074321;28;20341;-56
2022/10/27 06:17:51;;;;;;;43.13;19.20;;;;;;;;;;5092450;28;20477;-56
2022/10/27 06:20:16;;;;;;;36.42;15.75;;;;;;;;;;5082067;28;20406;-57
2022/10/27 06:22:44;;;;;;;28.15;13.32;;;;;;;;;;5100803;27;20039;-57
2022/10/27 06:25:09;;;;;;;17.05;10.93;;;;;;;;;;5089284;28;20466;-57
2022/10/27 06:27:35;;;;;;;24.55;11.80;;;;;;;;;;5086977;28;20035;-57
2022/10/27 06:30:00;;;;;;;10.73;7.15;;;;;;;;;;5094871;28;20434;-57
2022/10/27 06:32:25;;;;;;;11.27;7.22;;;;;;;;;;5087257;28;20107;-57
2022/10/27 06:34:50;;;;;;;10.32;7.13;;;;;;;;;;5082598;28;20462;-57
2022/10/27 06:37:15;;;;;;;19.48;9.68;;;;;;;;;;5084400;28;20404;-58
2022/10/27 06:39:41;;;;;;;16.33;9.55;;;;;;;;;;5077128;28;20482;-58
2022/10/27 06:42:07;;;;;;;19.15;9.65;;;;;;;;;;5081963;28;20378;-56
2022/10/27 06:44:32;;;;;;;14.73;7.95;;;;;;;;;;5083798;28;20113;-56
2022/10/27 06:46:57;;;;;;;10.23;6.30;;;;;;;;;;5090413;28;20067;-56
2022/10/27 06:49:22;;;;;;;10.68;5.97;;;;;;;;;;5081973;28;20024;-57
2022/10/27 06:51:47;;;;;;;14.23;7.50;;;;;;;;;;5081459;28;20024;-58
2022/10/27 06:54:13;;;;;;;16.52;8.20;;;;;;;;;;5086194;28;20020;-58
2022/10/27 06:56:38;;;;;;;11.43;7.07;;;;;;;;;;5089797;28;20466;-58
2022/10/27 06:59:03;;;;;;;13.07;7.20;;;;;;;;;;5087154;28;20720;-58
2022/10/27 07:01:30;;;;;;;12.18;6.70;;;;;;;;;;5090611;28;20518;-57
2022/10/27 07:03:55;;;;;;;11.77;5.35;;;;;;;;;;5080843;28;20019;-58
2022/10/27 07:06:21;;;;;;;7.32;5.10;;;;;;;;;;5083776;28;20216;-58
2022/10/27 07:08:46;;;;;;;8.85;5.22;;;;;;;;;;5107836;27;20045;-58
2022/10/27 07:11:12;;;;;;;9.88;4.68;;;;;;;;;;5084762;28;20036;-57
2022/10/27 07:13:37;;;;;;;11.00;4.90;;;;;;;;;;5087852;28;20028;-57
2022/10/27 07:16:02;;;;;;;9.23;4.70;;;;;;;;;;5083422;28;20020;-57
2022/10/27 07:18:28;;;;;;;7.47;4.53;;;;;;;;;;5089251;28;20036;-57
2022/10/27 07:20:53;;;;;;;8.80;4.50;;;;;;;;;;5082699;28;20035;-57
2022/10/27 07:23:18;;;;;;;9.80;4.50;;;;;;;;;;5087931;28;20497;-57
2022/10/27 07:25:46;;;;;;;12.35;4.70;;;;;;;;;;5088281;28;20036;-57
2022/10/27 07:28:11;;;;;;;8.85;4.93;;;;;;;;;;5086240;28;20024;-57
2022/10/27 07:30:37;;;;;;;7.45;4.18;;;;;;;;;;5074585;28;20088;-58
2022/10/27 07:33:03;;;;;;;9.18;4.00;;;;;;;;;;5074571;28;20077;-57
2022/10/27 07:35:28;;;;;;;10.23;4.30;;;;;;;;;;5076980;28;20089;-57
2022/10/27 07:37:53;;;;;;;9.05;4.05;;;;;;;;;;5076579;28;20367;-57
2022/10/27 07:40:19;;;;;;;12.95;4.05;;;;;;;;;;5084501;28;20071;-57
2022/10/27 07:42:47;;;;;;;7.70;5.20;;;;;;;;;;5073904;28;20028;-57
2022/10/27 07:45:13;;;;;;;7.10;5.03;;;;;;;;;;5073644;28;20132;-56
2022/10/27 07:47:44;;;;;;;9.23;4.15;;;;;;;;;;5092920;28;20015;-57
2022/10/27 07:50:09;;;;;;;13.98;4.90;;;;;;;;;;5078243;28;20088;-57
2022/10/27 07:52:44;;;;;;;9.55;4.32;;;;;;;;;;5084870;28;20513;-57
2022/10/27 07:55:10;;;;;;;8.38;4.40;;;;;;;;;;5086709;28;20036;-57
2022/10/27 07:57:35;;;;;;;11.70;4.25;;;;;;;;;;5085107;28;20021;-58
2022/10/27 08:00:00;;;;;;;13.15;4.63;;;;;;;;;;5083556;28;20139;-57
2022/10/27 08:02:25;;;;;;;7.03;3.97;;;;;;;;;;5085178;28;20028;-57
2022/10/27 08:04:51;;;;;;;9.82;4.40;;;;;;;;;;5080062;28;20288;-58
2022/10/27 08:07:16;;;;;;;10.43;4.25;;;;;;;;;;5085560;28;20055;-57
2022/10/27 08:09:43;;;;;;;8.07;3.97;;;;;;;;;;5079426;28;20040;-57
2022/10/27 08:12:08;;;;;;;7.55;4.05;;;;;;;;;;5085799;28;20030;-57
2022/10/27 08:14:33;;;;;;;10.70;4.00;;;;;;;;;;5090877;28;20024;-57
2022/10/27 08:16:58;;;;;;;6.68;4.15;;;;;;;;;;5089358;28;20038;-61
2022/10/27 08:19:23;;;;;;;9.07;3.90;;;;;;;;;;5091919;28;20207;-57
2022/10/27 08:21:49;;;;;;;6.68;3.72;;;;;;;;;;5089787;28;20106;-57
2022/10/27 08:24:14;;;;;;;8.45;3.92;;;;;;;;;;5088738;28;20032;-57
2022/10/27 08:26:39;;;;;;;7.75;3.90;;;;;;;;;;5082978;28;20387;-57
2022/10/27 08:29:05;;;;;;;5.85;3.72;;;;;;;;;;5088282;28;20515;-57
2022/10/27 08:31:30;;;;;;;6.60;3.78;;;;;;;;;;5093513;28;20474;-58
2022/10/27 08:33:55;;;;;;;11.23;3.85;;;;;;;;;;5088560;28;20373;-58
2022/10/27 08:36:20;;;;;;;8.73;4.10;;;;;;;;;;5085322;28;20028;-58
2022/10/27 08:38:46;;;;;;;8.27;3.47;;;;;;;;;;5099596;28;20015;-57
2022/10/27 08:41:24;;;;;;;10.00;4.07;;;;;;;;;;5082469;28;20122;-57
2022/10/27 08:43:59;;;;;;;8.65;4.07;;;;;;;;;;5076393;28;20012;-57
2022/10/27 08:46:24;;;;;;;9.02;4.15;;;;;;;;;;5078642;28;20024;-57
2022/10/27 08:48:50;;;;;;;7.55;3.72;;;;;;;;;;5087780;28;20038;-57
2022/10/27 08:51:16;;;;;;;9.52;3.72;;;;;;;;;;5085735;28;20035;-57
2022/10/27 08:53:41;;;;;;;10.10;3.67;;;;;;;;;;5081696;28;20685;-57
2022/10/27 08:56:10;;;;;;;6.90;3.47;;;;;;;;;;5088506;28;20024;-57
2022/10/27 08:58:41;;;;;;;8.48;3.47;;;;;;;;;;5092064;28;20045;-57
2022/10/27 09:01:12;;;;;;;9.13;3.58;;;;;;;;;;5089495;28;20020;-56
2022/10/27 09:03:56;;;;;;;7.60;3.25;;;;;;;;;;5083135;28;20092;-56
2022/10/27 09:06:32;;;;;;;12.30;3.67;;;;;;;;;;5083075;28;20045;-56
2022/10/27 09:09:17;;;;;;;11.27;3.50;;;;;;;;;;5090031;28;20020;-57
2022/10/27 09:11:48;;;;;;;8.95;3.45;;;;;;;;;;5091858;28;20028;-57
2022/10/27 09:14:19;;;;;;;8.50;3.40;;;;;;;;;;5089186;28;20043;-57
2022/10/27 09:16:47;;;;;;;7.43;3.30;;;;;;;;;;5088807;28;20024;-56
2022/10/27 09:19:15;;;;;;;8.98;3.45;;;;;;;;;;5082936;28;20128;-56
2022/10/27 09:21:40;;;;;;;9.25;3.58;;;;;;;;;;5093919;28;20047;-57
2022/10/27 09:24:16;;;;;;;14.52;3.95;;;;;;;;;;5088396;28;20051;-57
2022/10/27 09:26:41;;;;;;;13.05;4.30;;;;;;;;;;5089364;28;20020;-56
2022/10/27 09:29:13;;;;;;;18.27;5.13;;;;;;;;;;5087846;28;20031;-57
2022/10/27 09:31:46;;;;;;;16.98;5.40;;;;;;;;;;5092128;28;20425;-55
2022/10/27 09:34:32;;;;;;;17.83;5.97;;;;;;;;;;5090380;28;20024;-57
2022/10/27 09:36:58;;;;;;;15.25;5.38;;;;;;;;;;5090936;28;20213;-57
2022/10/27 09:39:23;;;;;;;21.05;5.22;;;;;;;;;;5091027;28;20498;-56
2022/10/27 09:41:48;;;;;;;25.95;6.93;;;;;;;;;;5091791;28;20019;-55
2022/10/27 09:44:23;;;;;;;24.92;5.80;;;;;;;;;;5091296;28;20025;-56
2022/10/27 09:46:52;;;;;;;21.77;5.70;;;;;;;;;;5090787;28;20080;-57
2022/10/27 09:49:17;;;;;;;14.93;5.82;;;;;;;;;;5091678;28;20016;-56
2022/10/27 09:51:44;;;;;;;19.52;6.18;;;;;;;;;;5090951;28;20038;-57
2022/10/27 09:54:28;;;;;;;23.33;6.45;;;;;;;;;;5087381;28;20187;-56
2022/10/27 09:56:53;;;;;;;20.42;6.03;;;;;;;;;;5083536;28;20373;-56
2022/10/27 09:59:19;;;;;;;17.50;5.70;;;;;;;;;;5094957;28;20019;-57
2022/10/27 10:01:48;;;;;;;19.10;6.13;;;;;;;;;;5089891;28;20213;-56
2022/10/27 10:04:27;;;;;;;28.33;7.68;;;;;;;;;;5084516;28;20059;-56
2022/10/27 10:06:57;;;;;;;19.63;6.88;;;;;;;;;;5085724;28;20058;-57
2022/10/27 10:09:23;;;;;;;22.88;6.82;;;;;;;;;;5089239;28;20485;-56
2022/10/27 10:11:48;;;;;;;24.30;7.22;;;;;;;;;;5093888;28;20454;-56
2022/10/27 10:14:21;;;;;;;20.38;7.43;;;;;;;;;;5090971;28;20243;-56
2022/10/27 10:16:47;;;;;;;20.13;7.07;;;;;;;;;;5091620;28;20106;-57
2022/10/27 10:19:16;;;;;;;20.08;6.50;;;;;;;;;;5089732;28;20529;-56
2022/10/27 10:21:44;;;;;;;25.70;5.83;;;;;;;;;;5088811;28;20563;-57
2022/10/27 10:24:14;;;;;;;16.88;5.75;;;;;;;;;;5084309;28;20028;-56
2022/10/27 10:26:39;;;;;;;20.25;6.13;;;;;;;;;;5077655;28;20067;-57
2022/10/27 10:29:06;;;;;;;23.27;5.68;;;;;;;;;;5079407;28;20051;-57
2022/10/27 10:31:31;;;;;;;14.05;5.35;;;;;;;;;;5093185;28;20030;-56
2022/10/27 10:34:03;;;;;;;21.25;6.53;;;;;;;;;;5085467;28;20390;-56
2022/10/27 10:36:35;;;;;;;15.50;6.45;;;;;;;;;;5086512;28;20020;-56
2022/10/27 10:39:00;;;;;;;23.63;6.90;;;;;;;;;;5080488;28;20016;-56
2022/10/27 10:41:26;;;;;;;17.30;5.68;;;;;;;;;;5086459;28;20501;-56
2022/10/27 10:44:06;;;;;;;17.58;5.82;;;;;;;;;;5100659;28;20354;-57
2022/10/27 10:46:32;;;;;;;22.27;6.07;;;;;;;;;;5088277;28;20056;-57
2022/10/27 10:48:57;;;;;;;15.02;5.97;;;;;;;;;;5094637;28;20687;-55
2022/10/27 10:51:23;;;;;;;19.02;5.85;;;;;;;;;;5093116;28;20065;-56
2022/10/27 10:53:48;;;;;;;13.90;5.55;;;;;;;;;;5084987;28;20020;-56
2022/10/27 10:56:21;;;;;;;13.52;5.57;;;;;;;;;;5083078;28;20034;-56
2022/10/27 10:58:46;;;;;;;11.80;5.80;;;;;;;;;;5089254;28;20054;-55
2022/10/27 11:01:12;;;;;;;16.52;5.38;;;;;;;;;;5085786;28;20023;-56
2022/10/27 11:03:42;;;;;;;12.25;5.05;;;;;;;;;;5090880;28;20034;-55
2022/10/27 11:06:14;;;;;;;21.38;5.07;;;;;;;;;;5089391;28;20052;-57
2022/10/27 11:08:42;;;;;;;10.55;4.72;;;;;;;;;;5091484;28;20054;-55
2022/10/27 11:11:12;;;;;;;15.00;5.00;;;;;;;;;;5087569;28;20054;-57
2022/10/27 11:13:39;;;;;;;14.13;5.50;;;;;;;;;;5090975;28;20059;-56
2022/10/27 11:16:05;;;;;;;15.20;4.93;;;;;;;;;;5080241;28;20030;-56
2022/10/27 11:18:34;;;;;;;21.98;5.78;;;;;;;;;;5088246;28;20035;-56
2022/10/27 11:21:11;;;;;;;18.65;6.07;;;;;;;;;;5089184;28;20461;-56
2022/10/27 11:23:57;;;;;;;13.57;5.93;;;;;;;;;;5083551;28;20132;-56
2022/10/27 11:26:23;;;;;;;19.63;5.55;;;;;;;;;;5091319;28;20032;-55
2022/10/27 11:29:07;;;;;;;14.50;5.82;;;;;;;;;;5089930;28;20027;-56
2022/10/27 11:31:36;;;;;;;25.48;7.18;;;;;;;;;;5086927;28;20085;-56
2022/10/27 11:34:04;;;;;;;32.63;8.93;;;;;;;;;;5088978;28;20415;-56
2022/10/27 11:36:35;;;;;;;33.60;9.48;;;;;;;;;;5092586;28;20272;-57
2022/10/27 11:39:04;;;;;;;37.78;10.13;;;;;;;;;;5073074;28;20377;-56
2022/10/27 11:41:35;;;;;;;29.05;8.35;;;;;;;;;;5089542;28;20080;-56
2022/10/27 11:44:04;;;;;;;25.67;7.57;;;;;;;;;;5093609;28;20102;-55
2022/10/27 11:46:32;;;;;;;26.77;8.65;;;;;;;;;;5087386;28;20059;-57
2022/10/27 11:49:00;;;;;;;21.75;7.78;;;;;;;;;;5088933;28;20032;-57
2022/10/27 11:51:30;;;;;;;23.63;7.95;;;;;;;;;;5081870;28;20028;-56
2022/10/27 11:53:56;;;;;;;22.60;6.97;;;;;;;;;;5091675;28;20491;-55
2022/10/27 11:56:21;;;;;;;22.20;7.30;;;;;;;;;;5089409;28;20110;-56
2022/10/27 11:58:46;;;;;;;18.65;7.60;;;;;;;;;;5088822;28;20046;-56
2022/10/27 12:01:30;;;;;;;16.27;6.80;;;;;;;;;;5092369;28;20050;-55
2022/10/27 12:04:31;;;;;;;14.77;7.13;;;;;;;;;;5088052;28;20020;-56
2022/10/27 12:07:03;;;;;;;16.55;7.00;;;;;;;;;;5017436;28;20048;-56
2022/10/27 12:09:41;;;;;;;22.15;7.43;;;;;;;;;;5072738;28;20520;-56
2022/10/27 12:12:08;;;;;;;23.60;7.90;;;;;;;;;;5091768;28;20020;-56
2022/10/27 12:14:37;;;;;;;20.83;7.47;;;;;;;;;;5088472;28;20042;-56
2022/10/27 12:17:11;;;;;;;17.92;7.10;;;;;;;;;;5081521;28;20097;-56
2022/10/27 12:19:40;;;;;;;22.33;7.65;;;;;;;;;;5083264;28;20038;-56
2022/10/27 12:22:10;;;;;;;22.00;8.05;;;;;;;;;;5085591;28;20741;-55
2022/10/27 12:24:38;;;;;;;21.35;7.88;;;;;;;;;;5095110;28;20114;-56
2022/10/27 12:27:17;;;;;;;25.63;8.20;;;;;;;;;;5079433;28;20032;-56
2022/10/27 12:29:47;;;;;;;25.00;7.45;;;;;;;;;;5082557;28;20047;-56
2022/10/27 12:32:19;;;;;;;23.08;7.00;;;;;;;;;;5087385;28;20070;-55
2022/10/27 12:35:08;;;;;;;25.15;6.80;;;;;;;;;;5082537;28;20073;-56
2022/10/27 12:37:51;;;;;;;17.25;7.13;;;;;;;;;;5077834;28;20063;-55
2022/10/27 12:40:23;;;;;;;27.88;7.00;;;;;;;;;;5089638;28;20239;-56
2022/10/27 12:42:55;;;;;;;25.27;6.68;;;;;;;;;;5084668;28;20170;-56
2022/10/27 12:45:26;;;;;;;18.60;6.22;;;;;;;;;;5086469;28;20080;-56
2022/10/27 12:47:51;;;;;;;17.63;6.43;;;;;;;;;;5090762;28;20092;-56
2022/10/27 12:50:20;;;;;;;17.02;6.05;;;;;;;;;;5092004;28;20111;-56
2022/10/27 12:52:55;;;;;;;13.77;5.50;;;;;;;;;;5091580;28;20418;-56
2022/10/27 12:55:24;;;;;;;16.35;6.18;;;;;;;;;;5074479;28;20050;-56
2022/10/27 12:58:13;;;;;;;20.30;6.20;;;;;;;;;;5081917;28;20035;-55
2022/10/27 13:00:40;;;;;;;24.50;6.72;;;;;;;;;;5074925;28;20075;-55
2022/10/27 13:03:20;;;;;;;17.27;6.03;;;;;;;;;;5086964;28;20016;-55
2022/10/27 13:05:50;;;;;;;28.60;6.88;;;;;;;;;;5090687;28;20036;-55
2022/10/27 13:08:15;;;;;;;18.63;6.03;;;;;;;;;;5097270;28;20028;-57
2022/10/27 13:10:46;;;;;;;18.52;6.10;;;;;;;;;;5086918;28;20023;-56
2022/10/27 13:13:31;;;;;;;17.38;5.70;;;;;;;;;;5081408;28;20039;-58
2022/10/27 13:16:02;;;;;;;14.98;5.57;;;;;;;;;;5081735;28;20024;-55
2022/10/27 13:18:33;;;;;;;16.77;5.30;;;;;;;;;;5088927;28;20040;-56
2022/10/27 13:21:16;;;;;;;17.55;5.28;;;;;;;;;;5090115;28;20528;-56
2022/10/27 13:24:05;;;;;;;13.50;3.83;;;;;;;;;;5084955;28;20035;-56
2022/10/27 13:26:32;;;;;;;10.52;3.28;;;;;;;;;;5084204;28;20036;-56
2022/10/27 13:28:58;;;;;;;10.88;3.20;;;;;;;;;;5085003;28;20470;-55
2022/10/27 13:31:23;;;;;;;9.32;3.20;;;;;;;;;;5087999;28;20119;-55
2022/10/27 13:33:58;;;;;;;16.23;3.33;;;;;;;;;;5092947;27;20020;-56
2022/10/27 13:36:23;;;;;;;9.98;2.83;;;;;;;;;;5073142;28;20016;-55
2022/10/27 13:38:49;;;;;;;10.50;3.30;;;;;;;;;;5095556;28;20027;-55
2022/10/27 13:41:33;;;;;;;15.18;3.90;;;;;;;;;;5087940;28;20024;-55
2022/10/27 13:43:58;;;;;;;9.70;3.80;;;;;;;;;;5088679;28;20489;-55
2022/10/27 13:46:43;;;;;;;8.60;3.38;;;;;;;;;;5088235;28;20036;-56
2022/10/27 13:49:09;;;;;;;7.47;3.55;;;;;;;;;;5085218;28;20036;-56
2022/10/27 13:51:40;;;;;;;12.70;3.30;;;;;;;;;;5091204;28;20028;-56
2022/10/27 13:54:25;;;;;;;9.40;3.70;;;;;;;;;;5098542;28;20346;-57
2022/10/27 13:56:50;;;;;;;11.60;4.07;;;;;;;;;;5082440;28;20564;-55
2022/10/27 13:59:17;;;;;;;10.38;3.80;;;;;;;;;;5089075;28;20151;-56
2022/10/27 14:01:42;;;;;;;8.48;3.42;;;;;;;;;;5081202;28;20421;-55
2022/10/27 14:04:11;;;;;;;13.45;3.60;;;;;;;;;;5083926;28;20020;-55
2022/10/27 14:06:39;;;;;;;12.68;3.55;;;;;;;;;;5089301;28;20063;-57
2022/10/27 14:09:23;;;;;;;19.00;3.92;;;;;;;;;;5089213;28;20448;-54
2022/10/27 14:11:49;;;;;;;10.95;3.55;;;;;;;;;;5089442;28;20015;-55
2022/10/27 14:14:41;;;;;;;13.00;3.88;;;;;;;;;;5093933;28;20017;-55
2022/10/27 14:17:17;;;;;;;10.07;3.67;;;;;;;;;;5089983;28;20032;-54
2022/10/27 14:19:43;;;;;;;8.75;3.60;;;;;;;;;;5088262;28;20465;-55
2022/10/27 14:22:15;;;;;;;10.02;3.55;;;;;;;;;;5102188;27;20058;-55
2022/10/27 14:24:42;;;;;;;9.63;3.35;;;;;;;;;;5080841;28;20114;-56
2022/10/27 14:27:15;;;;;;;11.07;3.90;;;;;;;;;;5091798;28;20036;-56
2022/10/27 14:29:40;;;;;;;9.82;3.92;;;;;;;;;;5092002;28;20041;-56
2022/10/27 14:32:19;;;;;;;9.55;3.97;;;;;;;;;;5088829;28;20416;-55
2022/10/27 14:34:44;;;;;;;9.13;3.55;;;;;;;;;;5086268;28;20015;-56
2022/10/27 14:37:16;;;;;;;13.68;3.90;;;;;;;;;;5081903;28;20221;-56